sensor_id;sensor_type;location;lat;lon;timestamp;temperature;humidity
4993;DHT22;2514;53.524;10.166;2022-12-10T00:02:25;-1.00;99.90
4993;DHT22;2514;53.524;10.166;2022-12-10T00:04:54;-1.10;99.90
4993;DHT22;2514;53.524;10.166;2022-12-10T00:07:21;-1.10;99.90
4993;DHT22;2514;53.524;10.166;2022-12-10T00:09:48;-1.00;99.90
4993;DHT22;2514;53.524;10.166;2022-12-10T00:12:15;-1.10;99.90
4993;DHT22;2514;53.524;10.166;2022-12-10T00:14:42;-1.10;99.90
4993;DHT22;2514;53.524;10.166;2022-12-10T00:17:09;-1.10;99.90
4993;DHT22;2514;53.524;10.166;2022-12-10T00:19:36;-1.10;99.90
4993;DHT22;2514;53.524;10.166;2022-12-10T00:22:04;-1.20;99.90
4993;DHT22;2514;53.524;10.166;2022-12-10T00:24:31;-1.20;99.90
4993;DHT22;2514;53.524;10.166;2022-12-10T00:26:58;-1.20;99.90
4993;DHT22;2514;53.524;10.166;2022-12-10T00:29:25;-1.20;99.90
4993;DHT22;2514;53.524;10.166;2022-12-10T00:31:52;-1.20;99.90
4993;DHT22;2514;53.524;10.166;2022-12-10T00:34:19;-1.20;99.90
4993;DHT22;2514;53.524;10.166;2022-12-10T00:36:47;-1.20;99.90
4993;DHT22;2514;53.524;10.166;2022-12-10T00:39:19;-1.10;99.90
4993;DHT22;2514;53.524;10.166;2022-12-10T00:41:47;-1.10;99.90
4993;DHT22;2514;53.524;10.166;2022-12-10T00:44:15;-1.00;99.90
4993;DHT22;2514;53.524;10.166;2022-12-10T00:46:42;-1.00;99.90
4993;DHT22;2514;53.524;10.166;2022-12-10T00:49:10;-1.00;99.90
4993;DHT22;2514;53.524;10.166;2022-12-10T00:51:37;-1.00;99.90
4993;DHT22;2514;53.524;10.166;2022-12-10T00:54:05;-1.00;99.90
4993;DHT22;2514;53.524;10.166;2022-12-10T00:56:34;-1.00;99.90
4993;DHT22;2514;53.524;10.166;2022-12-10T00:59:01;-1.00;99.90
4993;DHT22;2514;53.524;10.166;2022-12-10T01:01:31;-1.00;99.90
4993;DHT22;2514;53.524;10.166;2022-12-10T01:04:01;-1.00;99.90
4993;DHT22;2514;53.524;10.166;2022-12-10T01:06:31;-1.00;99.90
4993;DHT22;2514;53.524;10.166;2022-12-10T01:09:02;-0.90;99.90
4993;DHT22;2514;53.524;10.166;2022-12-10T01:11:34;-1.00;99.90
4993;DHT22;2514;53.524;10.166;2022-12-10T01:14:03;-1.00;99.90
4993;DHT22;2514;53.524;10.166;2022-12-10T01:16:31;-1.00;99.90
4993;DHT22;2514;53.524;10.166;2022-12-10T01:18:58;-1.00;99.90
4993;DHT22;2514;53.524;10.166;2022-12-10T01:21:27;-1.00;99.90
4993;DHT22;2514;53.524;10.166;2022-12-10T01:23:55;-1.00;99.90
4993;DHT22;2514;53.524;10.166;2022-12-10T01:26:24;-1.00;99.90
4993;DHT22;2514;53.524;10.166;2022-12-10T01:28:55;-1.00;99.90
4993;DHT22;2514;53.524;10.166;2022-12-10T01:31:27;-1.00;99.90
4993;DHT22;2514;53.524;10.166;2022-12-10T01:33:57;-1.00;99.90
4993;DHT22;2514;53.524;10.166;2022-12-10T01:36:28;-1.00;99.90
4993;DHT22;2514;53.524;10.166;2022-12-10T01:38:56;-0.90;99.90
4993;DHT22;2514;53.524;10.166;2022-12-10T01:41:27;-0.90;99.90
4993;DHT22;2514;53.524;10.166;2022-12-10T01:43:59;-0.90;99.90
4993;DHT22;2514;53.524;10.166;2022-12-10T01:46:29;-1.00;99.90
4993;DHT22;2514;53.524;10.166;2022-12-10T01:48:58;-1.00;99.90
4993;DHT22;2514;53.524;10.166;2022-12-10T01:51:30;-0.90;99.90
4993;DHT22;2514;53.524;10.166;2022-12-10T01:54:00;-0.90;99.90
4993;DHT22;2514;53.524;10.166;2022-12-10T01:56:28;-0.90;99.90
4993;DHT22;2514;53.524;10.166;2022-12-10T01:58:57;-1.00;99.90
4993;DHT22;2514;53.524;10.166;2022-12-10T02:01:28;-0.90;99.90
4993;DHT22;2514;53.524;10.166;2022-12-10T02:04:04;-0.90;99.90
4993;DHT22;2514;53.524;10.166;2022-12-10T02:06:48;-0.90;99.90
4993;DHT22;2514;53.524;10.166;2022-12-10T02:09:27;-0.90;99.90
4993;DHT22;2514;53.524;10.166;2022-12-10T02:12:09;-0.90;99.90
4993;DHT22;2514;53.524;10.166;2022-12-10T02:14:45;-0.90;99.90
4993;DHT22;2514;53.524;10.166;2022-12-10T02:17:22;-0.90;99.90
4993;DHT22;2514;53.524;10.166;2022-12-10T02:19:58;-0.90;99.90
4993;DHT22;2514;53.524;10.166;2022-12-10T02:22:34;-1.00;99.90
4993;DHT22;2514;53.524;10.166;2022-12-10T02:25:04;-1.00;99.90
4993;DHT22;2514;53.524;10.166;2022-12-10T02:27:40;-1.00;99.90
4993;DHT22;2514;53.524;10.166;2022-12-10T02:30:13;-1.00;99.90
4993;DHT22;2514;53.524;10.166;2022-12-10T02:32:42;-1.00;99.90
4993;DHT22;2514;53.524;10.166;2022-12-10T02:35:15;-1.00;99.90
4993;DHT22;2514;53.524;10.166;2022-12-10T02:37:47;-1.00;99.90
4993;DHT22;2514;53.524;10.166;2022-12-10T02:40:18;-1.00;99.90
4993;DHT22;2514;53.524;10.166;2022-12-10T02:42:49;-1.00;99.90
4993;DHT22;2514;53.524;10.166;2022-12-10T02:45:20;-1.00;99.90
4993;DHT22;2514;53.524;10.166;2022-12-10T02:47:50;-1.00;99.90
4993;DHT22;2514;53.524;10.166;2022-12-10T02:50:20;-1.00;99.90
4993;DHT22;2514;53.524;10.166;2022-12-10T02:52:48;-1.00;99.90
4993;DHT22;2514;53.524;10.166;2022-12-10T02:55:15;-0.80;99.90
4993;DHT22;2514;53.524;10.166;2022-12-10T02:57:50;-0.90;99.90
4993;DHT22;2514;53.524;10.166;2022-12-10T03:00:27;-0.90;99.90
4993;DHT22;2514;53.524;10.166;2022-12-10T03:03:22;-0.80;99.90
4993;DHT22;2514;53.524;10.166;2022-12-10T03:05:59;-0.90;99.90
4993;DHT22;2514;53.524;10.166;2022-12-10T03:08:34;-1.00;99.90
4993;DHT22;2514;53.524;10.166;2022-12-10T03:11:07;-1.00;99.90
4993;DHT22;2514;53.524;10.166;2022-12-10T03:13:40;-0.90;99.90
4993;DHT22;2514;53.524;10.166;2022-12-10T03:16:13;-1.00;99.90
4993;DHT22;2514;53.524;10.166;2022-12-10T03:18:42;-0.90;99.90
4993;DHT22;2514;53.524;10.166;2022-12-10T03:21:12;-0.80;99.90
4993;DHT22;2514;53.524;10.166;2022-12-10T03:23:43;-0.80;99.90
4993;DHT22;2514;53.524;10.166;2022-12-10T03:26:12;-0.90;99.90
4993;DHT22;2514;53.524;10.166;2022-12-10T03:28:45;-0.90;99.90
4993;DHT22;2514;53.524;10.166;2022-12-10T03:31:15;-0.80;99.90
4993;DHT22;2514;53.524;10.166;2022-12-10T03:33:44;-0.90;99.90
4993;DHT22;2514;53.524;10.166;2022-12-10T03:36:13;-1.00;99.90
4993;DHT22;2514;53.524;10.166;2022-12-10T03:38:40;-0.90;99.90
4993;DHT22;2514;53.524;10.166;2022-12-10T03:41:08;-0.80;99.90
4993;DHT22;2514;53.524;10.166;2022-12-10T03:43:36;-0.80;99.90
4993;DHT22;2514;53.524;10.166;2022-12-10T03:46:18;-0.80;99.90
4993;DHT22;2514;53.524;10.166;2022-12-10T03:48:45;-0.60;99.90
4993;DHT22;2514;53.524;10.166;2022-12-10T03:51:12;-0.70;99.90
4993;DHT22;2514;53.524;10.166;2022-12-10T03:53:39;-0.70;99.90
4993;DHT22;2514;53.524;10.166;2022-12-10T03:56:06;-0.70;99.90
4993;DHT22;2514;53.524;10.166;2022-12-10T03:58:33;-0.80;99.90
4993;DHT22;2514;53.524;10.166;2022-12-10T04:01:01;-0.70;99.90
4993;DHT22;2514;53.524;10.166;2022-12-10T04:03:29;-0.70;99.90
4993;DHT22;2514;53.524;10.166;2022-12-10T04:06:01;-0.70;99.90
4993;DHT22;2514;53.524;10.166;2022-12-10T04:08:29;-0.70;99.90
4993;DHT22;2514;53.524;10.166;2022-12-10T04:11:02;-0.70;99.90
4993;DHT22;2514;53.524;10.166;2022-12-10T04:13:32;-0.50;99.90
4993;DHT22;2514;53.524;10.166;2022-12-10T04:16:16;-0.50;99.90
4993;DHT22;2514;53.524;10.166;2022-12-10T04:18:56;-0.60;99.90
4993;DHT22;2514;53.524;10.166;2022-12-10T04:21:25;-0.50;99.90
4993;DHT22;2514;53.524;10.166;2022-12-10T04:24:10;-0.50;99.90
4993;DHT22;2514;53.524;10.166;2022-12-10T04:26:56;-0.50;99.90
4993;DHT22;2514;53.524;10.166;2022-12-10T04:29:29;-0.40;99.90
4993;DHT22;2514;53.524;10.166;2022-12-10T04:31:57;-0.50;99.90
4993;DHT22;2514;53.524;10.166;2022-12-10T04:34:25;-0.50;99.90
4993;DHT22;2514;53.524;10.166;2022-12-10T04:36:54;-0.50;99.90
4993;DHT22;2514;53.524;10.166;2022-12-10T04:39:23;-0.60;99.90
4993;DHT22;2514;53.524;10.166;2022-12-10T04:41:50;-0.60;99.90
4993;DHT22;2514;53.524;10.166;2022-12-10T04:44:18;-0.60;99.90
4993;DHT22;2514;53.524;10.166;2022-12-10T04:46:46;-0.60;99.90
4993;DHT22;2514;53.524;10.166;2022-12-10T04:49:13;-0.60;99.90
4993;DHT22;2514;53.524;10.166;2022-12-10T04:51:42;-0.50;99.90
4993;DHT22;2514;53.524;10.166;2022-12-10T04:54:10;-0.50;99.90
4993;DHT22;2514;53.524;10.166;2022-12-10T04:56:37;-0.50;99.90
4993;DHT22;2514;53.524;10.166;2022-12-10T04:59:05;-0.60;99.90
4993;DHT22;2514;53.524;10.166;2022-12-10T05:01:33;-0.50;99.90
4993;DHT22;2514;53.524;10.166;2022-12-10T05:04:01;-0.40;99.90
4993;DHT22;2514;53.524;10.166;2022-12-10T05:06:31;-0.40;99.90
4993;DHT22;2514;53.524;10.166;2022-12-10T05:08:59;-0.30;99.90
4993;DHT22;2514;53.524;10.166;2022-12-10T05:11:28;-0.40;99.90
4993;DHT22;2514;53.524;10.166;2022-12-10T05:13:56;-0.50;99.90
4993;DHT22;2514;53.524;10.166;2022-12-10T05:16:26;-0.50;99.90
4993;DHT22;2514;53.524;10.166;2022-12-10T05:18:55;-0.50;99.90
4993;DHT22;2514;53.524;10.166;2022-12-10T05:21:24;-0.60;99.90
4993;DHT22;2514;53.524;10.166;2022-12-10T05:24:17;-0.60;99.90
4993;DHT22;2514;53.524;10.166;2022-12-10T05:26:43;-0.60;99.90
4993;DHT22;2514;53.524;10.166;2022-12-10T05:29:12;-0.70;99.90
4993;DHT22;2514;53.524;10.166;2022-12-10T05:31:39;-0.80;99.90
4993;DHT22;2514;53.524;10.166;2022-12-10T05:34:07;-0.90;99.90
4993;DHT22;2514;53.524;10.166;2022-12-10T05:36:35;-0.80;99.90
4993;DHT22;2514;53.524;10.166;2022-12-10T05:39:03;-0.80;99.90
4993;DHT22;2514;53.524;10.166;2022-12-10T05:41:34;-0.80;99.90
4993;DHT22;2514;53.524;10.166;2022-12-10T05:44:03;-0.70;99.90
4993;DHT22;2514;53.524;10.166;2022-12-10T05:46:31;-0.70;99.90
4993;DHT22;2514;53.524;10.166;2022-12-10T05:49:00;-0.70;99.90
4993;DHT22;2514;53.524;10.166;2022-12-10T05:51:30;-0.80;99.90
4993;DHT22;2514;53.524;10.166;2022-12-10T05:54:00;-0.70;99.90
4993;DHT22;2514;53.524;10.166;2022-12-10T05:56:30;-0.70;99.90
4993;DHT22;2514;53.524;10.166;2022-12-10T05:58:59;-0.70;99.90
4993;DHT22;2514;53.524;10.166;2022-12-10T06:01:30;-0.80;99.90
4993;DHT22;2514;53.524;10.166;2022-12-10T06:03:59;-1.00;99.90
4993;DHT22;2514;53.524;10.166;2022-12-10T06:06:29;-1.00;99.90
4993;DHT22;2514;53.524;10.166;2022-12-10T06:08:57;-0.80;99.90
4993;DHT22;2514;53.524;10.166;2022-12-10T06:11:25;-0.90;99.90
4993;DHT22;2514;53.524;10.166;2022-12-10T06:13:54;-0.90;99.90
4993;DHT22;2514;53.524;10.166;2022-12-10T06:16:23;-0.80;99.90
4993;DHT22;2514;53.524;10.166;2022-12-10T06:18:51;-0.80;99.90
4993;DHT22;2514;53.524;10.166;2022-12-10T06:21:20;-0.80;99.90
4993;DHT22;2514;53.524;10.166;2022-12-10T06:23:50;-1.00;99.90
4993;DHT22;2514;53.524;10.166;2022-12-10T06:26:20;-1.00;99.90
4993;DHT22;2514;53.524;10.166;2022-12-10T06:28:48;-1.00;99.90
4993;DHT22;2514;53.524;10.166;2022-12-10T06:31:18;-1.00;99.90
4993;DHT22;2514;53.524;10.166;2022-12-10T06:33:46;-1.10;99.90
4993;DHT22;2514;53.524;10.166;2022-12-10T06:36:14;-1.10;99.90
4993;DHT22;2514;53.524;10.166;2022-12-10T06:38:42;-1.00;99.90
4993;DHT22;2514;53.524;10.166;2022-12-10T06:41:12;-1.00;99.90
4993;DHT22;2514;53.524;10.166;2022-12-10T06:43:40;-1.00;99.90
4993;DHT22;2514;53.524;10.166;2022-12-10T06:46:09;-1.00;99.90
4993;DHT22;2514;53.524;10.166;2022-12-10T06:48:38;-1.00;99.90
4993;DHT22;2514;53.524;10.166;2022-12-10T06:51:06;-1.00;99.90
4993;DHT22;2514;53.524;10.166;2022-12-10T06:53:35;-1.00;99.90
4993;DHT22;2514;53.524;10.166;2022-12-10T06:56:04;-1.00;99.90
4993;DHT22;2514;53.524;10.166;2022-12-10T06:58:34;-1.00;99.90
4993;DHT22;2514;53.524;10.166;2022-12-10T07:01:03;-1.10;99.90
4993;DHT22;2514;53.524;10.166;2022-12-10T07:03:31;-1.30;99.90
4993;DHT22;2514;53.524;10.166;2022-12-10T07:06:03;-1.30;99.90
4993;DHT22;2514;53.524;10.166;2022-12-10T07:08:31;-1.20;99.90
4993;DHT22;2514;53.524;10.166;2022-12-10T07:10:58;-1.30;99.90
4993;DHT22;2514;53.524;10.166;2022-12-10T07:13:25;-1.30;99.90
4993;DHT22;2514;53.524;10.166;2022-12-10T07:15:52;-1.30;99.90
4993;DHT22;2514;53.524;10.166;2022-12-10T07:18:19;-1.20;99.90
4993;DHT22;2514;53.524;10.166;2022-12-10T07:20:47;-1.20;99.90
4993;DHT22;2514;53.524;10.166;2022-12-10T07:23:15;-1.20;99.90
4993;DHT22;2514;53.524;10.166;2022-12-10T07:25:42;-1.20;99.90
4993;DHT22;2514;53.524;10.166;2022-12-10T07:28:09;-1.10;99.90
4993;DHT22;2514;53.524;10.166;2022-12-10T07:30:36;-1.00;99.90
4993;DHT22;2514;53.524;10.166;2022-12-10T07:33:03;-0.90;99.90
4993;DHT22;2514;53.524;10.166;2022-12-10T07:35:30;-1.00;99.90
4993;DHT22;2514;53.524;10.166;2022-12-10T07:37:57;-1.00;99.90
4993;DHT22;2514;53.524;10.166;2022-12-10T07:40:26;-1.00;99.90
4993;DHT22;2514;53.524;10.166;2022-12-10T07:42:53;-1.00;99.90
4993;DHT22;2514;53.524;10.166;2022-12-10T07:45:20;-1.00;99.90
4993;DHT22;2514;53.524;10.166;2022-12-10T07:47:47;-1.10;99.90
4993;DHT22;2514;53.524;10.166;2022-12-10T07:50:14;-1.20;99.90
4993;DHT22;2514;53.524;10.166;2022-12-10T07:52:41;-1.10;99.90
4993;DHT22;2514;53.524;10.166;2022-12-10T07:55:08;-1.10;99.90
4993;DHT22;2514;53.524;10.166;2022-12-10T07:57:36;-1.20;99.90
4993;DHT22;2514;53.524;10.166;2022-12-10T08:00:04;-1.10;99.90
4993;DHT22;2514;53.524;10.166;2022-12-10T08:02:32;-1.10;99.90
4993;DHT22;2514;53.524;10.166;2022-12-10T08:04:59;-1.00;99.90
4993;DHT22;2514;53.524;10.166;2022-12-10T08:07:26;-1.00;99.90
4993;DHT22;2514;53.524;10.166;2022-12-10T08:09:53;-1.00;99.90
4993;DHT22;2514;53.524;10.166;2022-12-10T08:12:20;-1.10;99.90
4993;DHT22;2514;53.524;10.166;2022-12-10T08:14:48;-1.10;99.90
4993;DHT22;2514;53.524;10.166;2022-12-10T08:17:15;-1.10;99.90
4993;DHT22;2514;53.524;10.166;2022-12-10T08:19:42;-1.00;99.90
4993;DHT22;2514;53.524;10.166;2022-12-10T08:22:09;-1.00;99.90
4993;DHT22;2514;53.524;10.166;2022-12-10T08:24:36;-0.90;99.90
4993;DHT22;2514;53.524;10.166;2022-12-10T08:27:03;-0.80;99.90
4993;DHT22;2514;53.524;10.166;2022-12-10T08:29:30;-0.80;99.90
4993;DHT22;2514;53.524;10.166;2022-12-10T08:31:58;-0.80;99.90
4993;DHT22;2514;53.524;10.166;2022-12-10T08:34:25;-0.80;99.90
4993;DHT22;2514;53.524;10.166;2022-12-10T08:36:52;-0.90;99.90
4993;DHT22;2514;53.524;10.166;2022-12-10T08:39:19;-1.00;99.90
4993;DHT22;2514;53.524;10.166;2022-12-10T08:41:46;-1.10;99.90
4993;DHT22;2514;53.524;10.166;2022-12-10T08:44:13;-1.10;99.90
4993;DHT22;2514;53.524;10.166;2022-12-10T08:46:41;-1.10;99.90
4993;DHT22;2514;53.524;10.166;2022-12-10T08:49:09;-1.00;99.90
4993;DHT22;2514;53.524;10.166;2022-12-10T08:51:36;-1.00;99.90
4993;DHT22;2514;53.524;10.166;2022-12-10T08:54:03;-0.90;99.90
4993;DHT22;2514;53.524;10.166;2022-12-10T08:56:30;-0.80;99.90
4993;DHT22;2514;53.524;10.166;2022-12-10T08:58:58;-0.80;99.90
4993;DHT22;2514;53.524;10.166;2022-12-10T09:01:25;-0.80;99.90
4993;DHT22;2514;53.524;10.166;2022-12-10T09:03:52;-0.70;99.90
4993;DHT22;2514;53.524;10.166;2022-12-10T09:06:22;-0.60;99.90
4993;DHT22;2514;53.524;10.166;2022-12-10T09:08:51;-0.50;99.90
4993;DHT22;2514;53.524;10.166;2022-12-10T09:11:20;-0.60;99.90
4993;DHT22;2514;53.524;10.166;2022-12-10T09:13:48;-0.60;99.90
4993;DHT22;2514;53.524;10.166;2022-12-10T09:16:16;-0.70;99.90
4993;DHT22;2514;53.524;10.166;2022-12-10T09:18:43;-0.90;99.90
4993;DHT22;2514;53.524;10.166;2022-12-10T09:21:13;-0.90;99.90
4993;DHT22;2514;53.524;10.166;2022-12-10T09:23:42;-0.80;99.90
4993;DHT22;2514;53.524;10.166;2022-12-10T09:26:12;-0.70;99.90
4993;DHT22;2514;53.524;10.166;2022-12-10T09:28:41;-0.60;99.90
4993;DHT22;2514;53.524;10.166;2022-12-10T09:31:09;-0.60;99.90
4993;DHT22;2514;53.524;10.166;2022-12-10T09:33:37;-0.60;99.90
4993;DHT22;2514;53.524;10.166;2022-12-10T09:36:06;-0.50;99.90
4993;DHT22;2514;53.524;10.166;2022-12-10T09:38:35;-0.50;99.90
4993;DHT22;2514;53.524;10.166;2022-12-10T09:41:15;-0.60;99.90
4993;DHT22;2514;53.524;10.166;2022-12-10T09:43:57;-0.60;99.90
4993;DHT22;2514;53.524;10.166;2022-12-10T09:46:33;-0.70;99.90
4993;DHT22;2514;53.524;10.166;2022-12-10T09:49:17;-0.70;99.90
4993;DHT22;2514;53.524;10.166;2022-12-10T09:51:48;-0.70;99.90
4993;DHT22;2514;53.524;10.166;2022-12-10T09:54:20;-0.70;99.90
4993;DHT22;2514;53.524;10.166;2022-12-10T09:56:54;-0.70;99.90
4993;DHT22;2514;53.524;10.166;2022-12-10T09:59:26;-0.80;99.90
4993;DHT22;2514;53.524;10.166;2022-12-10T10:02:03;-0.80;99.90
4993;DHT22;2514;53.524;10.166;2022-12-10T10:04:37;-0.80;99.90
4993;DHT22;2514;53.524;10.166;2022-12-10T10:07:05;-0.80;99.90
4993;DHT22;2514;53.524;10.166;2022-12-10T10:09:37;-0.80;99.90
4993;DHT22;2514;53.524;10.166;2022-12-10T10:12:12;-0.70;99.90
4993;DHT22;2514;53.524;10.166;2022-12-10T10:14:41;-0.70;99.90
4993;DHT22;2514;53.524;10.166;2022-12-10T10:17:12;-0.80;99.90
4993;DHT22;2514;53.524;10.166;2022-12-10T10:19:43;-0.70;99.90
4993;DHT22;2514;53.524;10.166;2022-12-10T10:22:10;-0.70;99.90
4993;DHT22;2514;53.524;10.166;2022-12-10T10:24:40;-0.80;99.90
4993;DHT22;2514;53.524;10.166;2022-12-10T10:27:14;-0.70;99.90
4993;DHT22;2514;53.524;10.166;2022-12-10T10:29:42;-0.70;99.90
4993;DHT22;2514;53.524;10.166;2022-12-10T10:32:13;-0.70;99.90
4993;DHT22;2514;53.524;10.166;2022-12-10T10:34:43;-0.80;99.90
4993;DHT22;2514;53.524;10.166;2022-12-10T10:37:16;-0.80;99.90
4993;DHT22;2514;53.524;10.166;2022-12-10T10:39:47;-0.70;99.90
4993;DHT22;2514;53.524;10.166;2022-12-10T10:42:34;-0.70;99.90
4993;DHT22;2514;53.524;10.166;2022-12-10T10:45:02;-0.60;99.90
4993;DHT22;2514;53.524;10.166;2022-12-10T10:47:32;-0.60;99.90
4993;DHT22;2514;53.524;10.166;2022-12-10T10:50:04;-0.60;99.90
4993;DHT22;2514;53.524;10.166;2022-12-10T10:52:36;-0.60;99.90
4993;DHT22;2514;53.524;10.166;2022-12-10T10:55:05;-0.60;99.90
4993;DHT22;2514;53.524;10.166;2022-12-10T10:57:37;-0.60;99.90
4993;DHT22;2514;53.524;10.166;2022-12-10T11:00:06;-0.70;99.90
4993;DHT22;2514;53.524;10.166;2022-12-10T11:02:44;-0.80;99.90
4993;DHT22;2514;53.524;10.166;2022-12-10T11:05:17;-0.80;99.90
4993;DHT22;2514;53.524;10.166;2022-12-10T11:07:47;-0.80;99.90
4993;DHT22;2514;53.524;10.166;2022-12-10T11:10:19;-0.70;99.90
4993;DHT22;2514;53.524;10.166;2022-12-10T11:12:56;-0.70;99.90
4993;DHT22;2514;53.524;10.166;2022-12-10T11:15:33;-0.70;99.90
4993;DHT22;2514;53.524;10.166;2022-12-10T11:18:02;-0.70;99.90
4993;DHT22;2514;53.524;10.166;2022-12-10T11:20:35;-0.60;99.90
4993;DHT22;2514;53.524;10.166;2022-12-10T11:23:08;-0.60;99.90
4993;DHT22;2514;53.524;10.166;2022-12-10T11:25:44;-0.40;99.90
4993;DHT22;2514;53.524;10.166;2022-12-10T11:28:31;-0.40;99.90
4993;DHT22;2514;53.524;10.166;2022-12-10T11:31:13;-0.40;99.90
4993;DHT22;2514;53.524;10.166;2022-12-10T11:33:57;-0.60;1.00
4993;DHT22;2514;53.524;10.166;2022-12-10T11:36:38;-0.70;1.00
4993;DHT22;2514;53.524;10.166;2022-12-10T11:39:21;-0.60;65.00
4993;DHT22;2514;53.524;10.166;2022-12-10T11:42:04;-0.50;99.90
4993;DHT22;2514;53.524;10.166;2022-12-10T11:44:43;-0.50;70.00
4993;DHT22;2514;53.524;10.166;2022-12-10T11:47:28;-0.60;1.00
4993;DHT22;2514;53.524;10.166;2022-12-10T11:50:11;-0.80;1.00
4993;DHT22;2514;53.524;10.166;2022-12-10T11:52:52;-0.70;81.60
4993;DHT22;2514;53.524;10.166;2022-12-10T11:55:35;-0.70;99.90
4993;DHT22;2514;53.524;10.166;2022-12-10T11:58:33;-0.60;99.90
4993;DHT22;2514;53.524;10.166;2022-12-10T12:01:21;-0.50;99.90
4993;DHT22;2514;53.524;10.166;2022-12-10T12:04:06;-0.50;99.90
4993;DHT22;2514;53.524;10.166;2022-12-10T12:07:01;-0.50;99.90
4993;DHT22;2514;53.524;10.166;2022-12-10T12:09:42;-0.50;99.90
4993;DHT22;2514;53.524;10.166;2022-12-10T12:12:26;-0.40;99.90
4993;DHT22;2514;53.524;10.166;2022-12-10T12:15:02;-0.40;99.90
4993;DHT22;2514;53.524;10.166;2022-12-10T12:17:35;-0.40;99.90
4993;DHT22;2514;53.524;10.166;2022-12-10T12:20:13;-0.40;99.90
4993;DHT22;2514;53.524;10.166;2022-12-10T12:22:45;-0.40;99.90
4993;DHT22;2514;53.524;10.166;2022-12-10T12:25:20;-0.30;99.90
4993;DHT22;2514;53.524;10.166;2022-12-10T12:27:52;-0.30;99.90
4993;DHT22;2514;53.524;10.166;2022-12-10T12:30:21;-0.40;99.90
4993;DHT22;2514;53.524;10.166;2022-12-10T12:32:57;-0.40;99.90
4993;DHT22;2514;53.524;10.166;2022-12-10T12:35:36;-0.40;99.90
4993;DHT22;2514;53.524;10.166;2022-12-10T12:38:19;-0.30;99.90
4993;DHT22;2514;53.524;10.166;2022-12-10T12:40:53;-0.30;99.90
4993;DHT22;2514;53.524;10.166;2022-12-10T12:43:28;-0.30;45.50
4993;DHT22;2514;53.524;10.166;2022-12-10T12:46:02;-0.30;1.00
4993;DHT22;2514;53.524;10.166;2022-12-10T12:48:36;-0.40;1.00
4993;DHT22;2514;53.524;10.166;2022-12-10T12:51:11;-0.30;1.00
4993;DHT22;2514;53.524;10.166;2022-12-10T12:53:39;-0.40;2.90
4993;DHT22;2514;53.524;10.166;2022-12-10T12:56:10;-0.40;26.70
4993;DHT22;2514;53.524;10.166;2022-12-10T12:58:47;-0.40;11.60
4993;DHT22;2514;53.524;10.166;2022-12-10T13:01:27;-0.30;26.30
4993;DHT22;2514;53.524;10.166;2022-12-10T13:03:59;-0.20;1.00
4993;DHT22;2514;53.524;10.166;2022-12-10T13:06:27;-0.30;1.00
4993;DHT22;2514;53.524;10.166;2022-12-10T13:09:16;-0.30;1.00
4993;DHT22;2514;53.524;10.166;2022-12-10T13:12:26;-0.30;99.90
4993;DHT22;2514;53.524;10.166;2022-12-10T13:15:02;-0.40;1.00
4993;DHT22;2514;53.524;10.166;2022-12-10T13:18:02;-0.40;99.90
4993;DHT22;2514;53.524;10.166;2022-12-10T13:20:40;-0.50;1.00
4993;DHT22;2514;53.524;10.166;2022-12-10T13:23:28;-0.50;1.00
4993;DHT22;2514;53.524;10.166;2022-12-10T13:25:58;-0.50;1.00
4993;DHT22;2514;53.524;10.166;2022-12-10T13:28:30;-0.60;1.00
4993;DHT22;2514;53.524;10.166;2022-12-10T13:31:33;-0.60;1.00
4993;DHT22;2514;53.524;10.166;2022-12-10T13:34:22;-0.60;1.00
4993;DHT22;2514;53.524;10.166;2022-12-10T13:37:28;-0.50;1.00
4993;DHT22;2514;53.524;10.166;2022-12-10T13:40:09;-0.50;1.00
4993;DHT22;2514;53.524;10.166;2022-12-10T13:42:43;-0.60;1.00
4993;DHT22;2514;53.524;10.166;2022-12-10T13:45:34;-0.50;1.00
4993;DHT22;2514;53.524;10.166;2022-12-10T13:48:30;-0.60;24.00
4993;DHT22;2514;53.524;10.166;2022-12-10T13:51:12;-0.50;78.00
4993;DHT22;2514;53.524;10.166;2022-12-10T13:53:59;-0.70;63.10
4993;DHT22;2514;53.524;10.166;2022-12-10T13:56:38;-0.60;99.90
4993;DHT22;2514;53.524;10.166;2022-12-10T13:59:16;-0.60;99.90
4993;DHT22;2514;53.524;10.166;2022-12-10T14:01:53;-0.60;99.90
4993;DHT22;2514;53.524;10.166;2022-12-10T14:05:02;-0.60;99.90
4993;DHT22;2514;53.524;10.166;2022-12-10T14:07:34;-0.70;99.90
4993;DHT22;2514;53.524;10.166;2022-12-10T14:10:04;-0.50;95.70
4993;DHT22;2514;53.524;10.166;2022-12-10T14:12:37;-0.60;1.00
4993;DHT22;2514;53.524;10.166;2022-12-10T14:15:14;-0.70;1.00
4993;DHT22;2514;53.524;10.166;2022-12-10T14:17:44;-0.60;1.00
4993;DHT22;2514;53.524;10.166;2022-12-10T14:20:19;-0.60;1.00
4993;DHT22;2514;53.524;10.166;2022-12-10T14:22:50;-0.60;1.00
4993;DHT22;2514;53.524;10.166;2022-12-10T14:25:43;-0.50;1.00
4993;DHT22;2514;53.524;10.166;2022-12-10T14:28:13;-0.50;1.00
4993;DHT22;2514;53.524;10.166;2022-12-10T14:30:43;-0.50;1.00
4993;DHT22;2514;53.524;10.166;2022-12-10T14:33:14;-0.50;1.00
4993;DHT22;2514;53.524;10.166;2022-12-10T14:35:46;-0.50;1.00
4993;DHT22;2514;53.524;10.166;2022-12-10T14:38:18;-0.60;1.00
4993;DHT22;2514;53.524;10.166;2022-12-10T14:40:48;-0.60;1.00
4993;DHT22;2514;53.524;10.166;2022-12-10T14:43:18;-0.50;1.00
4993;DHT22;2514;53.524;10.166;2022-12-10T14:45:51;-0.50;99.90
4993;DHT22;2514;53.524;10.166;2022-12-10T14:48:21;-0.50;99.90
4993;DHT22;2514;53.524;10.166;2022-12-10T14:50:49;-0.60;99.90
4993;DHT22;2514;53.524;10.166;2022-12-10T14:53:18;-0.60;99.90
4993;DHT22;2514;53.524;10.166;2022-12-10T14:55:52;-0.60;99.90
4993;DHT22;2514;53.524;10.166;2022-12-10T14:58:25;-0.60;99.90
4993;DHT22;2514;53.524;10.166;2022-12-10T15:00:56;-0.60;99.90
4993;DHT22;2514;53.524;10.166;2022-12-10T15:03:27;-0.60;1.00
4993;DHT22;2514;53.524;10.166;2022-12-10T15:06:00;-0.70;1.00
4993;DHT22;2514;53.524;10.166;2022-12-10T15:08:29;-0.70;1.00
4993;DHT22;2514;53.524;10.166;2022-12-10T15:11:01;-0.70;1.00
4993;DHT22;2514;53.524;10.166;2022-12-10T15:13:33;-0.70;1.00
4993;DHT22;2514;53.524;10.166;2022-12-10T15:16:04;-0.70;99.90
4993;DHT22;2514;53.524;10.166;2022-12-10T15:18:34;-0.60;99.90
4993;DHT22;2514;53.524;10.166;2022-12-10T15:21:09;-0.60;99.90
4993;DHT22;2514;53.524;10.166;2022-12-10T15:23:39;-0.70;17.10
4993;DHT22;2514;53.524;10.166;2022-12-10T15:26:15;-0.80;46.10
4993;DHT22;2514;53.524;10.166;2022-12-10T15:28:46;-0.70;99.90
4993;DHT22;2514;53.524;10.166;2022-12-10T15:31:19;-0.80;99.90
4993;DHT22;2514;53.524;10.166;2022-12-10T15:33:49;-0.80;99.90
4993;DHT22;2514;53.524;10.166;2022-12-10T15:36:22;-0.80;99.90
4993;DHT22;2514;53.524;10.166;2022-12-10T15:38:53;-0.90;99.90
4993;DHT22;2514;53.524;10.166;2022-12-10T15:41:36;-0.90;99.90
4993;DHT22;2514;53.524;10.166;2022-12-10T15:44:18;-0.90;1.00
4993;DHT22;2514;53.524;10.166;2022-12-10T15:46:51;-0.90;1.00
4993;DHT22;2514;53.524;10.166;2022-12-10T15:49:24;-0.90;1.00
4993;DHT22;2514;53.524;10.166;2022-12-10T15:51:51;-0.90;1.00
4993;DHT22;2514;53.524;10.166;2022-12-10T15:54:21;-1.00;1.00
4993;DHT22;2514;53.524;10.166;2022-12-10T15:56:50;-1.00;1.00
4993;DHT22;2514;53.524;10.166;2022-12-10T15:59:17;-1.00;1.00
4993;DHT22;2514;53.524;10.166;2022-12-10T16:01:45;-1.00;5.00
4993;DHT22;2514;53.524;10.166;2022-12-10T16:04:12;-1.00;27.80
4993;DHT22;2514;53.524;10.166;2022-12-10T16:06:40;-1.10;76.50
4993;DHT22;2514;53.524;10.166;2022-12-10T16:09:09;-1.00;99.90
4993;DHT22;2514;53.524;10.166;2022-12-10T16:11:36;-1.10;91.90
4993;DHT22;2514;53.524;10.166;2022-12-10T16:14:04;-1.00;99.90
4993;DHT22;2514;53.524;10.166;2022-12-10T16:16:32;-1.10;90.90
4993;DHT22;2514;53.524;10.166;2022-12-10T16:18:59;-1.10;92.90